sensor_id;sensor_type;location;lat;lon;timestamp;P1;durP1;ratioP1;P2;durP2;ratioP2
13208;SDS011;6669;42.678;23.332;2023-08-06T00:01:07;2.58;;;2.38;;
13208;SDS011;6669;42.678;23.332;2023-08-06T00:03:35;2.97;;;2.65;;
13208;SDS011;6669;42.678;23.332;2023-08-06T00:06:05;3.50;;;3.03;;
13208;SDS011;6669;42.678;23.332;2023-08-06T00:08:33;4.78;;;3.55;;
13208;SDS011;6669;42.678;23.332;2023-08-06T00:11:01;4.95;;;3.13;;
13208;SDS011;6669;42.678;23.332;2023-08-06T00:13:29;3.33;;;2.53;;
13208;SDS011;6669;42.678;23.332;2023-08-06T00:16:07;5.07;;;3.33;;
13208;SDS011;6669;42.678;23.332;2023-08-06T00:18:36;4.30;;;3.47;;
13208;SDS011;6669;42.678;23.332;2023-08-06T00:21:06;4.40;;;3.20;;
13208;SDS011;6669;42.678;23.332;2023-08-06T00:23:33;3.60;;;3.08;;
13208;SDS011;6669;42.678;23.332;2023-08-06T00:26:02;3.63;;;2.58;;
13208;SDS011;6669;42.678;23.332;2023-08-06T00:28:30;4.55;;;3.20;;
13208;SDS011;6669;42.678;23.332;2023-08-06T00:30:57;2.92;;;2.40;;
13208;SDS011;6669;42.678;23.332;2023-08-06T00:33:26;3.17;;;2.38;;
13208;SDS011;6669;42.678;23.332;2023-08-06T00:35:54;4.10;;;2.40;;
13208;SDS011;6669;42.678;23.332;2023-08-06T00:38:23;3.20;;;2.38;;
13208;SDS011;6669;42.678;23.332;2023-08-06T00:40:51;3.65;;;2.50;;
13208;SDS011;6669;42.678;23.332;2023-08-06T00:43:19;3.53;;;2.70;;
13208;SDS011;6669;42.678;23.332;2023-08-06T00:45:47;3.28;;;2.90;;
13208;SDS011;6669;42.678;23.332;2023-08-06T00:48:15;2.92;;;2.67;;
13208;SDS011;6669;42.678;23.332;2023-08-06T00:50:44;3.28;;;2.67;;
13208;SDS011;6669;42.678;23.332;2023-08-06T00:53:12;2.60;;;2.40;;
13208;SDS011;6669;42.678;23.332;2023-08-06T00:55:42;2.63;;;2.42;;
13208;SDS011;6669;42.678;23.332;2023-08-06T00:58:12;3.03;;;2.72;;
13208;SDS011;6669;42.678;23.332;2023-08-06T01:00:40;2.60;;;2.40;;
13208;SDS011;6669;42.678;23.332;2023-08-06T01:03:09;3.10;;;2.63;;
13208;SDS011;6669;42.678;23.332;2023-08-06T01:05:36;4.18;;;2.72;;
13208;SDS011;6669;42.678;23.332;2023-08-06T01:08:12;3.17;;;2.88;;
13208;SDS011;6669;42.678;23.332;2023-08-06T01:10:51;3.85;;;3.28;;
13208;SDS011;6669;42.678;23.332;2023-08-06T01:13:28;3.15;;;2.85;;
13208;SDS011;6669;42.678;23.332;2023-08-06T01:16:01;4.72;;;3.47;;
13208;SDS011;6669;42.678;23.332;2023-08-06T01:18:32;4.22;;;2.78;;
13208;SDS011;6669;42.678;23.332;2023-08-06T01:21:03;3.50;;;2.78;;
13208;SDS011;6669;42.678;23.332;2023-08-06T01:23:30;3.40;;;2.67;;
13208;SDS011;6669;42.678;23.332;2023-08-06T01:26:05;3.00;;;2.70;;
13208;SDS011;6669;42.678;23.332;2023-08-06T01:28:44;2.92;;;2.63;;
13208;SDS011;6669;42.678;23.332;2023-08-06T01:31:21;3.92;;;2.78;;
13208;SDS011;6669;42.678;23.332;2023-08-06T01:33:51;3.20;;;2.60;;
13208;SDS011;6669;42.678;23.332;2023-08-06T01:36:22;4.13;;;2.92;;
13208;SDS011;6669;42.678;23.332;2023-08-06T01:38:51;2.95;;;2.67;;
13208;SDS011;6669;42.678;23.332;2023-08-06T01:41:19;4.25;;;3.15;;
13208;SDS011;6669;42.678;23.332;2023-08-06T01:43:47;3.47;;;2.92;;
13208;SDS011;6669;42.678;23.332;2023-08-06T01:46:15;2.90;;;2.58;;
13208;SDS011;6669;42.678;23.332;2023-08-06T01:48:44;3.42;;;3.13;;
13208;SDS011;6669;42.678;23.332;2023-08-06T01:51:12;3.92;;;2.90;;
13208;SDS011;6669;42.678;23.332;2023-08-06T01:53:41;4.60;;;3.97;;
13208;SDS011;6669;42.678;23.332;2023-08-06T01:56:09;4.80;;;4.00;;
13208;SDS011;6669;42.678;23.332;2023-08-06T01:58:37;7.75;;;6.65;;
13208;SDS011;6669;42.678;23.332;2023-08-06T02:01:05;18.83;;;15.73;;
13208;SDS011;6669;42.678;23.332;2023-08-06T02:03:33;9.85;;;7.88;;
13208;SDS011;6669;42.678;23.332;2023-08-06T02:06:01;7.93;;;6.40;;
13208;SDS011;6669;42.678;23.332;2023-08-06T02:08:30;6.10;;;5.50;;
13208;SDS011;6669;42.678;23.332;2023-08-06T02:10:59;8.50;;;6.20;;
13208;SDS011;6669;42.678;23.332;2023-08-06T02:13:28;4.30;;;3.88;;
13208;SDS011;6669;42.678;23.332;2023-08-06T02:15:56;4.40;;;3.90;;
13208;SDS011;6669;42.678;23.332;2023-08-06T02:18:24;4.43;;;3.95;;
13208;SDS011;6669;42.678;23.332;2023-08-06T02:20:55;3.85;;;3.28;;
13208;SDS011;6669;42.678;23.332;2023-08-06T02:23:24;3.50;;;3.17;;
13208;SDS011;6669;42.678;23.332;2023-08-06T02:26:00;2.88;;;2.67;;
13208;SDS011;6669;42.678;23.332;2023-08-06T02:28:30;2.75;;;2.38;;
13208;SDS011;6669;42.678;23.332;2023-08-06T02:30:59;2.90;;;2.60;;
13208;SDS011;6669;42.678;23.332;2023-08-06T02:33:27;2.90;;;2.33;;
13208;SDS011;6669;42.678;23.332;2023-08-06T02:36:01;2.78;;;2.58;;
13208;SDS011;6669;42.678;23.332;2023-08-06T02:38:30;3.67;;;2.75;;
13208;SDS011;6669;42.678;23.332;2023-08-06T02:41:00;3.63;;;2.95;;
13208;SDS011;6669;42.678;23.332;2023-08-06T02:43:30;3.20;;;2.75;;
13208;SDS011;6669;42.678;23.332;2023-08-06T02:45:58;4.53;;;2.85;;
13208;SDS011;6669;42.678;23.332;2023-08-06T02:48:27;3.80;;;3.28;;
13208;SDS011;6669;42.678;23.332;2023-08-06T02:50:56;3.42;;;2.75;;
13208;SDS011;6669;42.678;23.332;2023-08-06T02:53:26;5.20;;;3.33;;
13208;SDS011;6669;42.678;23.332;2023-08-06T02:55:54;4.75;;;3.00;;
13208;SDS011;6669;42.678;23.332;2023-08-06T02:58:24;3.80;;;3.22;;
13208;SDS011;6669;42.678;23.332;2023-08-06T03:00:58;3.58;;;3.10;;
13208;SDS011;6669;42.678;23.332;2023-08-06T03:03:27;4.32;;;3.40;;
13208;SDS011;6669;42.678;23.332;2023-08-06T03:05:55;3.85;;;3.20;;
13208;SDS011;6669;42.678;23.332;2023-08-06T03:08:23;3.42;;;3.10;;
13208;SDS011;6669;42.678;23.332;2023-08-06T03:10:51;3.42;;;3.10;;
13208;SDS011;6669;42.678;23.332;2023-08-06T03:13:20;4.35;;;3.33;;
13208;SDS011;6669;42.678;23.332;2023-08-06T03:15:53;5.28;;;3.40;;
13208;SDS011;6669;42.678;23.332;2023-08-06T03:18:21;4.68;;;3.42;;
13208;SDS011;6669;42.678;23.332;2023-08-06T03:20:50;3.53;;;3.17;;
13208;SDS011;6669;42.678;23.332;2023-08-06T03:23:17;4.95;;;3.30;;
13208;SDS011;6669;42.678;23.332;2023-08-06T03:25:46;3.95;;;3.42;;
13208;SDS011;6669;42.678;23.332;2023-08-06T03:28:14;3.95;;;3.30;;
13208;SDS011;6669;42.678;23.332;2023-08-06T03:30:42;3.33;;;3.03;;
13208;SDS011;6669;42.678;23.332;2023-08-06T03:33:12;4.30;;;3.40;;
13208;SDS011;6669;42.678;23.332;2023-08-06T03:35:40;3.38;;;3.08;;
13208;SDS011;6669;42.678;23.332;2023-08-06T03:38:08;5.57;;;3.47;;
13208;SDS011;6669;42.678;23.332;2023-08-06T03:40:36;3.83;;;3.05;;
13208;SDS011;6669;42.678;23.332;2023-08-06T03:43:03;3.75;;;3.30;;
13208;SDS011;6669;42.678;23.332;2023-08-06T03:45:31;5.55;;;3.30;;
13208;SDS011;6669;42.678;23.332;2023-08-06T03:47:59;4.22;;;3.53;;
13208;SDS011;6669;42.678;23.332;2023-08-06T03:50:29;3.70;;;3.13;;
13208;SDS011;6669;42.678;23.332;2023-08-06T03:52:57;3.30;;;3.00;;
13208;SDS011;6669;42.678;23.332;2023-08-06T03:55:25;3.47;;;2.90;;
13208;SDS011;6669;42.678;23.332;2023-08-06T03:57:53;3.72;;;3.17;;
13208;SDS011;6669;42.678;23.332;2023-08-06T04:00:21;4.32;;;3.08;;
13208;SDS011;6669;42.678;23.332;2023-08-06T04:02:49;3.95;;;2.80;;
13208;SDS011;6669;42.678;23.332;2023-08-06T04:05:17;4.72;;;3.00;;
13208;SDS011;6669;42.678;23.332;2023-08-06T04:07:46;3.65;;;2.92;;
13208;SDS011;6669;42.678;23.332;2023-08-06T04:10:14;3.67;;;2.95;;
13208;SDS011;6669;42.678;23.332;2023-08-06T04:12:42;4.03;;;3.50;;
13208;SDS011;6669;42.678;23.332;2023-08-06T04:15:10;3.67;;;3.33;;
13208;SDS011;6669;42.678;23.332;2023-08-06T04:17:38;3.13;;;2.75;;
13208;SDS011;6669;42.678;23.332;2023-08-06T04:20:06;4.10;;;3.03;;
13208;SDS011;6669;42.678;23.332;2023-08-06T04:22:35;4.20;;;3.40;;
13208;SDS011;6669;42.678;23.332;2023-08-06T04:25:05;3.25;;;2.95;;
13208;SDS011;6669;42.678;23.332;2023-08-06T04:27:33;3.25;;;2.50;;
13208;SDS011;6669;42.678;23.332;2023-08-06T04:30:03;2.78;;;2.33;;
13208;SDS011;6669;42.678;23.332;2023-08-06T04:32:35;4.07;;;3.25;;
13208;SDS011;6669;42.678;23.332;2023-08-06T04:35:03;2.80;;;2.58;;
13208;SDS011;6669;42.678;23.332;2023-08-06T04:37:32;3.08;;;2.53;;
13208;SDS011;6669;42.678;23.332;2023-08-06T04:40:00;3.20;;;2.40;;
13208;SDS011;6669;42.678;23.332;2023-08-06T04:42:29;3.28;;;2.55;;
13208;SDS011;6669;42.678;23.332;2023-08-06T04:44:56;3.28;;;2.97;;
13208;SDS011;6669;42.678;23.332;2023-08-06T04:47:24;3.22;;;2.92;;
13208;SDS011;6669;42.678;23.332;2023-08-06T04:49:53;3.00;;;2.80;;
13208;SDS011;6669;42.678;23.332;2023-08-06T04:52:21;3.70;;;3.03;;
13208;SDS011;6669;42.678;23.332;2023-08-06T04:54:50;2.90;;;2.70;;
13208;SDS011;6669;42.678;23.332;2023-08-06T04:57:17;3.58;;;3.28;;
13208;SDS011;6669;42.678;23.332;2023-08-06T04:59:47;3.83;;;3.42;;
13208;SDS011;6669;42.678;23.332;2023-08-06T05:02:15;4.30;;;3.90;;
13208;SDS011;6669;42.678;23.332;2023-08-06T05:04:43;4.38;;;3.97;;
13208;SDS011;6669;42.678;23.332;2023-08-06T05:07:11;4.18;;;3.78;;
13208;SDS011;6669;42.678;23.332;2023-08-06T05:09:40;3.40;;;3.10;;
13208;SDS011;6669;42.678;23.332;2023-08-06T05:12:08;3.13;;;2.85;;
13208;SDS011;6669;42.678;23.332;2023-08-06T05:14:36;4.72;;;2.92;;
13208;SDS011;6669;42.678;23.332;2023-08-06T05:17:06;3.30;;;3.00;;
13208;SDS011;6669;42.678;23.332;2023-08-06T05:19:34;5.03;;;3.50;;
13208;SDS011;6669;42.678;23.332;2023-08-06T05:22:02;3.33;;;3.00;;
13208;SDS011;6669;42.678;23.332;2023-08-06T05:24:30;3.67;;;3.33;;
13208;SDS011;6669;42.678;23.332;2023-08-06T05:26:58;2.92;;;2.63;;
13208;SDS011;6669;42.678;23.332;2023-08-06T05:29:26;3.50;;;3.20;;
13208;SDS011;6669;42.678;23.332;2023-08-06T05:31:54;3.97;;;3.55;;
13208;SDS011;6669;42.678;23.332;2023-08-06T05:34:24;4.10;;;3.65;;
13208;SDS011;6669;42.678;23.332;2023-08-06T05:36:52;5.50;;;4.72;;
13208;SDS011;6669;42.678;23.332;2023-08-06T05:39:20;5.68;;;4.78;;
13208;SDS011;6669;42.678;23.332;2023-08-06T05:41:48;6.88;;;5.82;;
13208;SDS011;6669;42.678;23.332;2023-08-06T05:44:17;6.57;;;5.88;;
13208;SDS011;6669;42.678;23.332;2023-08-06T05:46:45;7.07;;;6.22;;
13208;SDS011;6669;42.678;23.332;2023-08-06T05:49:13;6.05;;;5.45;;
13208;SDS011;6669;42.678;23.332;2023-08-06T05:51:42;8.05;;;6.40;;
13208;SDS011;6669;42.678;23.332;2023-08-06T05:54:10;5.05;;;3.63;;
13208;SDS011;6669;42.678;23.332;2023-08-06T05:56:38;3.92;;;3.55;;
13208;SDS011;6669;42.678;23.332;2023-08-06T05:59:06;3.53;;;2.30;;
13208;SDS011;6669;42.678;23.332;2023-08-06T06:01:34;3.70;;;3.20;;
13208;SDS011;6669;42.678;23.332;2023-08-06T06:04:02;2.35;;;2.15;;
13208;SDS011;6669;42.678;23.332;2023-08-06T06:06:30;2.03;;;1.92;;
13208;SDS011;6669;42.678;23.332;2023-08-06T06:09:00;2.97;;;1.95;;
13208;SDS011;6669;42.678;23.332;2023-08-06T06:11:28;2.22;;;1.70;;
13208;SDS011;6669;42.678;23.332;2023-08-06T06:13:56;1.58;;;1.48;;
13208;SDS011;6669;42.678;23.332;2023-08-06T06:16:24;1.73;;;1.63;;
13208;SDS011;6669;42.678;23.332;2023-08-06T06:18:52;1.83;;;1.73;;
13208;SDS011;6669;42.678;23.332;2023-08-06T06:21:21;3.17;;;2.10;;
13208;SDS011;6669;42.678;23.332;2023-08-06T06:23:49;2.40;;;2.10;;
13208;SDS011;6669;42.678;23.332;2023-08-06T06:26:19;2.80;;;2.22;;
13208;SDS011;6669;42.678;23.332;2023-08-06T06:28:47;1.60;;;1.50;;
13208;SDS011;6669;42.678;23.332;2023-08-06T06:31:15;1.58;;;1.48;;
13208;SDS011;6669;42.678;23.332;2023-08-06T06:33:43;1.77;;;1.67;;
13208;SDS011;6669;42.678;23.332;2023-08-06T06:36:11;1.50;;;1.40;;
13208;SDS011;6669;42.678;23.332;2023-08-06T06:38:39;1.80;;;1.70;;
13208;SDS011;6669;42.678;23.332;2023-08-06T06:41:07;2.28;;;1.60;;
13208;SDS011;6669;42.678;23.332;2023-08-06T06:43:36;1.63;;;1.52;;
13208;SDS011;6669;42.678;23.332;2023-08-06T06:46:06;1.70;;;1.60;;
13208;SDS011;6669;42.678;23.332;2023-08-06T06:48:34;1.60;;;1.50;;
13208;SDS011;6669;42.678;23.332;2023-08-06T06:51:02;1.90;;;1.80;;
13208;SDS011;6669;42.678;23.332;2023-08-06T06:53:30;1.67;;;1.58;;
13208;SDS011;6669;42.678;23.332;2023-08-06T06:56:01;2.38;;;2.17;;
13208;SDS011;6669;42.678;23.332;2023-08-06T06:58:30;1.60;;;1.50;;
13208;SDS011;6669;42.678;23.332;2023-08-06T07:00:59;1.70;;;1.60;;
13208;SDS011;6669;42.678;23.332;2023-08-06T07:03:27;2.33;;;1.70;;
13208;SDS011;6669;42.678;23.332;2023-08-06T07:05:57;1.90;;;1.80;;
13208;SDS011;6669;42.678;23.332;2023-08-06T07:08:26;2.10;;;1.92;;
13208;SDS011;6669;42.678;23.332;2023-08-06T07:10:59;3.80;;;2.08;;
13208;SDS011;6669;42.678;23.332;2023-08-06T07:13:31;2.83;;;2.20;;
13208;SDS011;6669;42.678;23.332;2023-08-06T07:16:01;1.83;;;1.73;;
13208;SDS011;6669;42.678;23.332;2023-08-06T07:18:29;2.05;;;1.85;;
13208;SDS011;6669;42.678;23.332;2023-08-06T07:20:57;2.03;;;1.77;;
13208;SDS011;6669;42.678;23.332;2023-08-06T07:23:25;3.20;;;2.22;;
13208;SDS011;6669;42.678;23.332;2023-08-06T07:25:53;4.57;;;2.10;;
13208;SDS011;6669;42.678;23.332;2023-08-06T07:28:21;2.25;;;2.05;;
13208;SDS011;6669;42.678;23.332;2023-08-06T07:30:49;1.92;;;1.83;;
13208;SDS011;6669;42.678;23.332;2023-08-06T07:33:19;2.33;;;2.10;;
13208;SDS011;6669;42.678;23.332;2023-08-06T07:35:47;2.45;;;2.20;;
13208;SDS011;6669;42.678;23.332;2023-08-06T07:38:15;2.10;;;1.90;;
13208;SDS011;6669;42.678;23.332;2023-08-06T07:40:43;2.30;;;1.88;;
13208;SDS011;6669;42.678;23.332;2023-08-06T07:43:12;2.35;;;1.88;;
13208;SDS011;6669;42.678;23.332;2023-08-06T07:45:40;1.92;;;1.83;;
13208;SDS011;6669;42.678;23.332;2023-08-06T07:48:08;3.38;;;2.17;;
13208;SDS011;6669;42.678;23.332;2023-08-06T07:50:37;4.10;;;2.38;;
13208;SDS011;6669;42.678;23.332;2023-08-06T07:53:05;2.00;;;1.90;;
13208;SDS011;6669;42.678;23.332;2023-08-06T07:55:33;2.30;;;2.00;;
13208;SDS011;6669;42.678;23.332;2023-08-06T07:58:01;2.28;;;2.00;;
13208;SDS011;6669;42.678;23.332;2023-08-06T08:00:30;2.00;;;1.80;;
13208;SDS011;6669;42.678;23.332;2023-08-06T08:02:58;2.08;;;1.98;;
13208;SDS011;6669;42.678;23.332;2023-08-06T08:05:26;2.95;;;2.47;;
13208;SDS011;6669;42.678;23.332;2023-08-06T08:07:55;1.92;;;1.80;;
13208;SDS011;6669;42.678;23.332;2023-08-06T08:10:23;2.20;;;2.00;;
13208;SDS011;6669;42.678;23.332;2023-08-06T08:12:51;2.28;;;2.08;;
13208;SDS011;6669;42.678;23.332;2023-08-06T08:15:19;2.47;;;2.20;;
13208;SDS011;6669;42.678;23.332;2023-08-06T08:17:47;1.90;;;1.80;;
13208;SDS011;6669;42.678;23.332;2023-08-06T08:20:16;2.72;;;1.90;;
13208;SDS011;6669;42.678;23.332;2023-08-06T08:22:44;1.80;;;1.70;;
13208;SDS011;6669;42.678;23.332;2023-08-06T08:25:13;2.33;;;2.13;;
13208;SDS011;6669;42.678;23.332;2023-08-06T08:27:42;2.05;;;1.85;;
13208;SDS011;6669;42.678;23.332;2023-08-06T08:30:10;2.33;;;2.10;;
13208;SDS011;6669;42.678;23.332;2023-08-06T08:32:39;2.10;;;2.00;;
13208;SDS011;6669;42.678;23.332;2023-08-06T08:35:07;2.25;;;1.90;;
13208;SDS011;6669;42.678;23.332;2023-08-06T08:37:35;2.30;;;2.10;;
13208;SDS011;6669;42.678;23.332;2023-08-06T08:40:04;2.40;;;2.20;;
13208;SDS011;6669;42.678;23.332;2023-08-06T08:42:34;2.80;;;2.08;;
13208;SDS011;6669;42.678;23.332;2023-08-06T08:45:04;2.03;;;1.90;;
13208;SDS011;6669;42.678;23.332;2023-08-06T08:47:35;3.08;;;2.22;;
13208;SDS011;6669;42.678;23.332;2023-08-06T08:50:05;2.85;;;1.88;;
13208;SDS011;6669;42.678;23.332;2023-08-06T08:52:34;2.10;;;1.90;;
13208;SDS011;6669;42.678;23.332;2023-08-06T08:55:03;2.63;;;2.35;;
13208;SDS011;6669;42.678;23.332;2023-08-06T08:57:35;2.45;;;2.25;;
13208;SDS011;6669;42.678;23.332;2023-08-06T09:00:03;2.47;;;2.28;;
13208;SDS011;6669;42.678;23.332;2023-08-06T09:02:32;2.65;;;2.00;;
13208;SDS011;6669;42.678;23.332;2023-08-06T09:05:01;1.90;;;1.80;;
13208;SDS011;6669;42.678;23.332;2023-08-06T09:07:32;4.43;;;2.00;;
13208;SDS011;6669;42.678;23.332;2023-08-06T09:10:05;2.00;;;1.90;;
13208;SDS011;6669;42.678;23.332;2023-08-06T09:12:39;3.13;;;2.20;;
13208;SDS011;6669;42.678;23.332;2023-08-06T09:15:07;1.83;;;1.73;;
13208;SDS011;6669;42.678;23.332;2023-08-06T09:17:35;2.33;;;2.10;;
13208;SDS011;6669;42.678;23.332;2023-08-06T09:20:10;2.17;;;1.95;;
13208;SDS011;6669;42.678;23.332;2023-08-06T09:22:39;3.08;;;2.20;;
13208;SDS011;6669;42.678;23.332;2023-08-06T09:25:07;2.05;;;1.90;;
13208;SDS011;6669;42.678;23.332;2023-08-06T09:27:37;2.30;;;2.10;;
13208;SDS011;6669;42.678;23.332;2023-08-06T09:30:06;2.38;;;2.13;;
13208;SDS011;6669;42.678;23.332;2023-08-06T09:32:45;1.95;;;1.85;;
13208;SDS011;6669;42.678;23.332;2023-08-06T09:35:17;2.00;;;1.90;;
13208;SDS011;6669;42.678;23.332;2023-08-06T09:37:46;2.78;;;1.95;;
13208;SDS011;6669;42.678;23.332;2023-08-06T09:40:24;1.90;;;1.60;;
13208;SDS011;6669;42.678;23.332;2023-08-06T09:42:54;1.75;;;1.65;;
13208;SDS011;6669;42.678;23.332;2023-08-06T09:45:22;2.10;;;1.60;;
13208;SDS011;6669;42.678;23.332;2023-08-06T09:47:52;2.30;;;1.70;;
13208;SDS011;6669;42.678;23.332;2023-08-06T09:50:23;1.40;;;1.30;;
13208;SDS011;6669;42.678;23.332;2023-08-06T09:52:56;1.73;;;1.60;;
13208;SDS011;6669;42.678;23.332;2023-08-06T09:55:25;1.98;;;1.33;;
13208;SDS011;6669;42.678;23.332;2023-08-06T09:57:55;1.67;;;1.58;;
13208;SDS011;6669;42.678;23.332;2023-08-06T10:00:24;1.83;;;1.73;;
13208;SDS011;6669;42.678;23.332;2023-08-06T10:02:52;1.50;;;1.40;;
13208;SDS011;6669;42.678;23.332;2023-08-06T10:05:22;1.92;;;1.77;;
13208;SDS011;6669;42.678;23.332;2023-08-06T10:07:51;1.50;;;1.40;;
13208;SDS011;6669;42.678;23.332;2023-08-06T10:10:22;1.60;;;1.50;;
13208;SDS011;6669;42.678;23.332;2023-08-06T10:12:51;1.95;;;1.55;;
13208;SDS011;6669;42.678;23.332;2023-08-06T10:15:24;1.60;;;1.50;;
13208;SDS011;6669;42.678;23.332;2023-08-06T10:17:56;2.05;;;1.40;;
13208;SDS011;6669;42.678;23.332;2023-08-06T10:20:25;1.60;;;1.50;;
13208;SDS011;6669;42.678;23.332;2023-08-06T10:23:00;1.20;;;1.10;;
13208;SDS011;6669;42.678;23.332;2023-08-06T10:25:32;2.85;;;1.45;;
13208;SDS011;6669;42.678;23.332;2023-08-06T10:28:01;1.80;;;1.70;;
13208;SDS011;6669;42.678;23.332;2023-08-06T10:30:42;1.80;;;1.70;;
13208;SDS011;6669;42.678;23.332;2023-08-06T10:33:13;2.72;;;1.60;;
13208;SDS011;6669;42.678;23.332;2023-08-06T10:35:47;2.47;;;1.63;;
13208;SDS011;6669;42.678;23.332;2023-08-06T10:38:17;4.15;;;1.90;;
13208;SDS011;6669;42.678;23.332;2023-08-06T10:40:48;1.75;;;1.65;;
13208;SDS011;6669;42.678;23.332;2023-08-06T10:43:27;1.95;;;1.60;;
13208;SDS011;6669;42.678;23.332;2023-08-06T10:45:57;2.92;;;1.50;;
13208;SDS011;6669;42.678;23.332;2023-08-06T10:48:30;1.67;;;1.40;;
13208;SDS011;6669;42.678;23.332;2023-08-06T10:50:59;1.83;;;1.73;;
13208;SDS011;6669;42.678;23.332;2023-08-06T10:53:29;1.80;;;1.70;;
13208;SDS011;6669;42.678;23.332;2023-08-06T10:55:59;1.50;;;1.40;;
13208;SDS011;6669;42.678;23.332;2023-08-06T10:58:31;2.67;;;1.60;;
13208;SDS011;6669;42.678;23.332;2023-08-06T11:01:01;2.08;;;1.52;;
13208;SDS011;6669;42.678;23.332;2023-08-06T11:03:29;2.00;;;1.77;;
13208;SDS011;6669;42.678;23.332;2023-08-06T11:05:57;1.83;;;1.73;;
13208;SDS011;6669;42.678;23.332;2023-08-06T11:08:25;1.80;;;1.70;;
13208;SDS011;6669;42.678;23.332;2023-08-06T11:10:54;1.85;;;1.60;;
13208;SDS011;6669;42.678;23.332;2023-08-06T11:13:29;2.22;;;1.80;;
13208;SDS011;6669;42.678;23.332;2023-08-06T11:15:58;1.95;;;1.83;;
13208;SDS011;6669;42.678;23.332;2023-08-06T11:18:28;2.30;;;2.10;;
13208;SDS011;6669;42.678;23.332;2023-08-06T11:20:58;2.10;;;2.00;;
13208;SDS011;6669;42.678;23.332;2023-08-06T11:23:27;2.97;;;2.10;;
13208;SDS011;6669;42.678;23.332;2023-08-06T11:25:56;2.20;;;2.10;;
13208;SDS011;6669;42.678;23.332;2023-08-06T11:28:24;2.40;;;2.20;;
13208;SDS011;6669;42.678;23.332;2023-08-06T11:30:52;3.10;;;2.38;;
13208;SDS011;6669;42.678;23.332;2023-08-06T11:33:21;2.80;;;2.47;;
13208;SDS011;6669;42.678;23.332;2023-08-06T11:35:53;3.53;;;2.72;;
13208;SDS011;6669;42.678;23.332;2023-08-06T11:38:24;3.00;;;2.70;;
13208;SDS011;6669;42.678;23.332;2023-08-06T11:40:52;3.85;;;2.60;;
13208;SDS011;6669;42.678;23.332;2023-08-06T11:43:21;4.25;;;2.92;;
13208;SDS011;6669;42.678;23.332;2023-08-06T11:45:49;3.42;;;2.50;;
13208;SDS011;6669;42.678;23.332;2023-08-06T11:48:20;2.72;;;2.03;;
13208;SDS011;6669;42.678;23.332;2023-08-06T11:50:48;2.92;;;2.22;;
13208;SDS011;6669;42.678;23.332;2023-08-06T11:53:17;3.78;;;2.30;;
13208;SDS011;6669;42.678;23.332;2023-08-06T11:55:45;3.35;;;2.45;;
13208;SDS011;6669;42.678;23.332;2023-08-06T11:58:13;2.28;;;2.08;;
13208;SDS011;6669;42.678;23.332;2023-08-06T12:00:44;2.50;;;2.22;;
13208;SDS011;6669;42.678;23.332;2023-08-06T12:03:12;2.83;;;2.10;;
13208;SDS011;6669;42.678;23.332;2023-08-06T12:05:43;2.13;;;1.95;;
13208;SDS011;6669;42.678;23.332;2023-08-06T12:08:13;2.00;;;1.90;;
13208;SDS011;6669;42.678;23.332;2023-08-06T12:10:42;2.83;;;2.63;;
13208;SDS011;6669;42.678;23.332;2023-08-06T12:13:10;3.50;;;2.42;;
13208;SDS011;6669;42.678;23.332;2023-08-06T12:15:39;2.60;;;2.40;;
13208;SDS011;6669;42.678;23.332;2023-08-06T12:18:07;2.45;;;2.25;;
13208;SDS011;6669;42.678;23.332;2023-08-06T12:20:35;2.92;;;2.60;;
13208;SDS011;6669;42.678;23.332;2023-08-06T12:23:04;2.40;;;2.20;;
13208;SDS011;6669;42.678;23.332;2023-08-06T12:25:32;5.00;;;2.95;;
13208;SDS011;6669;42.678;23.332;2023-08-06T12:28:02;3.17;;;2.63;;
13208;SDS011;6669;42.678;23.332;2023-08-06T12:30:32;2.50;;;2.30;;
13208;SDS011;6669;42.678;23.332;2023-08-06T12:33:00;4.38;;;3.03;;
13208;SDS011;6669;42.678;23.332;2023-08-06T12:35:28;3.17;;;2.88;;
13208;SDS011;6669;42.678;23.332;2023-08-06T12:37:56;3.03;;;2.72;;
13208;SDS011;6669;42.678;23.332;2023-08-06T12:40:25;2.90;;;2.65;;
13208;SDS011;6669;42.678;23.332;2023-08-06T12:43:03;3.20;;;2.95;;
13208;SDS011;6669;42.678;23.332;2023-08-06T12:45:31;2.70;;;2.50;;
13208;SDS011;6669;42.678;23.332;2023-08-06T12:48:02;4.03;;;3.08;;
13208;SDS011;6669;42.678;23.332;2023-08-06T12:50:30;3.20;;;3.00;;
13208;SDS011;6669;42.678;23.332;2023-08-06T12:52:59;3.10;;;2.80;;
13208;SDS011;6669;42.678;23.332;2023-08-06T12:55:28;3.15;;;2.95;;
13208;SDS011;6669;42.678;23.332;2023-08-06T12:57:59;3.20;;;2.90;;
13208;SDS011;6669;42.678;23.332;2023-08-06T13:00:28;3.08;;;2.83;;
13208;SDS011;6669;42.678;23.332;2023-08-06T13:02:56;3.53;;;2.88;;
13208;SDS011;6669;42.678;23.332;2023-08-06T13:05:25;3.10;;;2.88;;
13208;SDS011;6669;42.678;23.332;2023-08-06T13:07:53;3.30;;;3.00;;
13208;SDS011;6669;42.678;23.332;2023-08-06T13:10:21;3.50;;;3.20;;
13208;SDS011;6669;42.678;23.332;2023-08-06T13:12:50;3.50;;;3.20;;
13208;SDS011;6669;42.678;23.332;2023-08-06T13:15:18;3.20;;;2.90;;
13208;SDS011;6669;42.678;23.332;2023-08-06T13:17:49;3.65;;;3.10;;
13208;SDS011;6669;42.678;23.332;2023-08-06T13:20:18;3.90;;;3.33;;
13208;SDS011;6669;42.678;23.332;2023-08-06T13:22:47;3.45;;;3.15;;
13208;SDS011;6669;42.678;23.332;2023-08-06T13:25:17;2.88;;;2.67;;
13208;SDS011;6669;42.678;23.332;2023-08-06T13:27:45;3.78;;;2.83;;
13208;SDS011;6669;42.678;23.332;2023-08-06T13:30:14;4.55;;;3.35;;
13208;SDS011;6669;42.678;23.332;2023-08-06T13:32:44;2.47;;;2.28;;
13208;SDS011;6669;42.678;23.332;2023-08-06T13:35:13;2.63;;;2.42;;
13208;SDS011;6669;42.678;23.332;2023-08-06T13:37:41;3.05;;;2.72;;
13208;SDS011;6669;42.678;23.332;2023-08-06T13:40:10;2.75;;;2.50;;
13208;SDS011;6669;42.678;23.332;2023-08-06T13:42:38;2.67;;;2.47;;
13208;SDS011;6669;42.678;23.332;2023-08-06T13:45:06;6.43;;;2.95;;
13208;SDS011;6669;42.678;23.332;2023-08-06T13:47:35;3.25;;;2.80;;
13208;SDS011;6669;42.678;23.332;2023-08-06T13:50:03;3.40;;;3.10;;
13208;SDS011;6669;42.678;23.332;2023-08-06T13:52:33;3.22;;;2.75;;
13208;SDS011;6669;42.678;23.332;2023-08-06T13:55:02;3.20;;;2.90;;
13208;SDS011;6669;42.678;23.332;2023-08-06T13:57:31;3.00;;;2.75;;
13208;SDS011;6669;42.678;23.332;2023-08-06T13:59:59;3.00;;;2.78;;
13208;SDS011;6669;42.678;23.332;2023-08-06T14:02:27;2.72;;;2.53;;
13208;SDS011;6669;42.678;23.332;2023-08-06T14:04:55;2.45;;;2.25;;
13208;SDS011;6669;42.678;23.332;2023-08-06T14:07:23;2.58;;;2.38;;
13208;SDS011;6669;42.678;23.332;2023-08-06T14:09:53;2.60;;;2.40;;
13208;SDS011;6669;42.678;23.332;2023-08-06T14:12:23;3.92;;;2.50;;
13208;SDS011;6669;42.678;23.332;2023-08-06T14:14:51;2.95;;;2.65;;
13208;SDS011;6669;42.678;23.332;2023-08-06T14:17:19;2.97;;;2.20;;
13208;SDS011;6669;42.678;23.332;2023-08-06T14:19:48;2.80;;;2.42;;
13208;SDS011;6669;42.678;23.332;2023-08-06T14:22:16;2.88;;;2.33;;
13208;SDS011;6669;42.678;23.332;2023-08-06T14:24:44;2.60;;;2.40;;
13208;SDS011;6669;42.678;23.332;2023-08-06T14:27:14;2.20;;;2.05;;
13208;SDS011;6669;42.678;23.332;2023-08-06T14:29:42;2.42;;;2.22;;
13208;SDS011;6669;42.678;23.332;2023-08-06T14:32:11;3.13;;;2.38;;
13208;SDS011;6669;42.678;23.332;2023-08-06T14:34:38;4.72;;;2.50;;
13208;SDS011;6669;42.678;23.332;2023-08-06T14:37:06;2.50;;;2.30;;
13208;SDS011;6669;42.678;23.332;2023-08-06T14:39:34;2.78;;;2.40;;
13208;SDS011;6669;42.678;23.332;2023-08-06T14:42:03;3.42;;;2.10;;
13208;SDS011;6669;42.678;23.332;2023-08-06T14:44:33;2.95;;;2.00;;
13208;SDS011;6669;42.678;23.332;2023-08-06T14:47:01;2.47;;;2.13;;
13208;SDS011;6669;42.678;23.332;2023-08-06T14:49:29;3.35;;;2.40;;
13208;SDS011;6669;42.678;23.332;2023-08-06T14:51:57;2.50;;;2.30;;
13208;SDS011;6669;42.678;23.332;2023-08-06T14:54:28;3.90;;;2.15;;
13208;SDS011;6669;42.678;23.332;2023-08-06T14:56:56;2.45;;;2.25;;
13208;SDS011;6669;42.678;23.332;2023-08-06T14:59:24;2.22;;;2.10;;